sensor_id;sensor_type;location;lat;lon;timestamp;P1;durP1;ratioP1;P2;durP2;ratioP2
9076;SDS011;4574;51.072;17.174;2022-12-15T00:02:38;71.80;;;38.63;;
9076;SDS011;4574;51.072;17.174;2022-12-15T00:05:24;73.40;;;42.00;;
9076;SDS011;4574;51.072;17.174;2022-12-15T00:08:15;79.80;;;40.90;;
9076;SDS011;4574;51.072;17.174;2022-12-15T00:11:02;75.67;;;38.37;;
9076;SDS011;4574;51.072;17.174;2022-12-15T00:13:48;73.83;;;37.87;;
9076;SDS011;4574;51.072;17.174;2022-12-15T00:16:36;62.63;;;34.97;;
9076;SDS011;4574;51.072;17.174;2022-12-15T00:19:21;74.23;;;36.90;;
9076;SDS011;4574;51.072;17.174;2022-12-15T00:22:07;70.97;;;35.67;;
9076;SDS011;4574;51.072;17.174;2022-12-15T00:24:52;67.40;;;38.00;;
9076;SDS011;4574;51.072;17.174;2022-12-15T00:27:38;71.43;;;38.37;;
9076;SDS011;4574;51.072;17.174;2022-12-15T00:30:24;81.63;;;40.93;;
9076;SDS011;4574;51.072;17.174;2022-12-15T00:33:16;80.80;;;41.53;;
9076;SDS011;4574;51.072;17.174;2022-12-15T00:36:02;279.40;;;122.90;;
9076;SDS011;4574;51.072;17.174;2022-12-15T00:38:48;537.63;;;228.10;;
9076;SDS011;4574;51.072;17.174;2022-12-15T00:41:17;416.47;;;187.87;;
9076;SDS011;4574;51.072;17.174;2022-12-15T00:43:46;114.30;;;52.00;;
9076;SDS011;4574;51.072;17.174;2022-12-15T00:46:14;97.03;;;46.53;;
9076;SDS011;4574;51.072;17.174;2022-12-15T00:49:02;149.77;;;67.23;;
9076;SDS011;4574;51.072;17.174;2022-12-15T00:51:51;636.43;;;299.73;;
9076;SDS011;4574;51.072;17.174;2022-12-15T00:54:36;387.00;;;157.60;;
9076;SDS011;4574;51.072;17.174;2022-12-15T00:57:22;170.77;;;72.87;;
9076;SDS011;4574;51.072;17.174;2022-12-15T01:00:08;113.70;;;51.67;;
9076;SDS011;4574;51.072;17.174;2022-12-15T01:02:54;98.77;;;47.27;;
9076;SDS011;4574;51.072;17.174;2022-12-15T01:05:42;100.47;;;46.03;;
9076;SDS011;4574;51.072;17.174;2022-12-15T01:08:28;106.50;;;46.97;;
9076;SDS011;4574;51.072;17.174;2022-12-15T01:11:14;93.43;;;45.03;;
9076;SDS011;4574;51.072;17.174;2022-12-15T01:13:59;86.43;;;41.57;;
9076;SDS011;4574;51.072;17.174;2022-12-15T01:16:45;89.57;;;42.33;;
9076;SDS011;4574;51.072;17.174;2022-12-15T01:19:31;95.57;;;43.53;;
9076;SDS011;4574;51.072;17.174;2022-12-15T01:22:18;94.73;;;42.07;;
9076;SDS011;4574;51.072;17.174;2022-12-15T01:24:46;87.97;;;43.23;;
9076;SDS011;4574;51.072;17.174;2022-12-15T01:27:15;87.77;;;39.53;;
9076;SDS011;4574;51.072;17.174;2022-12-15T01:29:43;91.13;;;42.83;;
9076;SDS011;4574;51.072;17.174;2022-12-15T01:32:12;82.57;;;42.23;;
9076;SDS011;4574;51.072;17.174;2022-12-15T01:34:40;90.17;;;42.07;;
9076;SDS011;4574;51.072;17.174;2022-12-15T01:37:09;79.73;;;41.10;;
9076;SDS011;4574;51.072;17.174;2022-12-15T01:39:38;86.27;;;41.27;;
9076;SDS011;4574;51.072;17.174;2022-12-15T01:42:24;88.83;;;40.20;;
9076;SDS011;4574;51.072;17.174;2022-12-15T01:44:53;79.43;;;39.67;;
9076;SDS011;4574;51.072;17.174;2022-12-15T01:48:06;90.97;;;41.23;;
9076;SDS011;4574;51.072;17.174;2022-12-15T01:50:38;83.87;;;39.07;;
9076;SDS011;4574;51.072;17.174;2022-12-15T01:53:10;96.50;;;41.50;;
9076;SDS011;4574;51.072;17.174;2022-12-15T01:55:42;85.57;;;41.03;;
9076;SDS011;4574;51.072;17.174;2022-12-15T01:58:15;84.63;;;41.63;;
9076;SDS011;4574;51.072;17.174;2022-12-15T02:00:46;88.90;;;40.97;;
9076;SDS011;4574;51.072;17.174;2022-12-15T02:03:15;82.57;;;41.50;;
9076;SDS011;4574;51.072;17.174;2022-12-15T02:05:44;86.37;;;40.63;;
9076;SDS011;4574;51.072;17.174;2022-12-15T02:08:13;79.90;;;40.20;;
9076;SDS011;4574;51.072;17.174;2022-12-15T02:10:49;86.13;;;42.27;;
9076;SDS011;4574;51.072;17.174;2022-12-15T02:13:30;80.37;;;40.90;;
9076;SDS011;4574;51.072;17.174;2022-12-15T02:16:04;80.80;;;39.30;;
9076;SDS011;4574;51.072;17.174;2022-12-15T02:18:43;87.93;;;40.87;;
9076;SDS011;4574;51.072;17.174;2022-12-15T02:21:21;80.17;;;40.23;;
9076;SDS011;4574;51.072;17.174;2022-12-15T02:24:06;85.33;;;39.27;;
9076;SDS011;4574;51.072;17.174;2022-12-15T02:27:19;78.70;;;37.73;;
9076;SDS011;4574;51.072;17.174;2022-12-15T02:33:09;79.30;;;38.50;;
9076;SDS011;4574;51.072;17.174;2022-12-15T02:35:47;83.27;;;38.80;;
9076;SDS011;4574;51.072;17.174;2022-12-15T02:38:30;94.47;;;40.70;;
9076;SDS011;4574;51.072;17.174;2022-12-15T02:41:01;78.23;;;36.70;;
9076;SDS011;4574;51.072;17.174;2022-12-15T02:43:31;85.33;;;38.93;;
9076;SDS011;4574;51.072;17.174;2022-12-15T02:46:10;85.97;;;40.53;;
9076;SDS011;4574;51.072;17.174;2022-12-15T02:48:47;77.60;;;38.90;;
9076;SDS011;4574;51.072;17.174;2022-12-15T02:51:29;82.00;;;39.40;;
9076;SDS011;4574;51.072;17.174;2022-12-15T02:54:20;81.97;;;40.00;;
9076;SDS011;4574;51.072;17.174;2022-12-15T02:56:59;74.13;;;36.50;;
9076;SDS011;4574;51.072;17.174;2022-12-15T02:59:37;71.83;;;35.43;;
9076;SDS011;4574;51.072;17.174;2022-12-15T03:02:11;74.67;;;36.00;;
9076;SDS011;4574;51.072;17.174;2022-12-15T03:04:41;72.80;;;36.20;;
9076;SDS011;4574;51.072;17.174;2022-12-15T03:07:11;76.63;;;35.50;;
9076;SDS011;4574;51.072;17.174;2022-12-15T03:09:40;77.17;;;35.57;;
9076;SDS011;4574;51.072;17.174;2022-12-15T03:12:09;66.47;;;33.80;;
9076;SDS011;4574;51.072;17.174;2022-12-15T03:14:38;69.40;;;34.57;;
9076;SDS011;4574;51.072;17.174;2022-12-15T03:17:06;64.43;;;34.03;;
9076;SDS011;4574;51.072;17.174;2022-12-15T03:19:36;68.47;;;35.60;;
9076;SDS011;4574;51.072;17.174;2022-12-15T03:22:04;69.63;;;35.67;;
9076;SDS011;4574;51.072;17.174;2022-12-15T03:24:32;68.93;;;35.60;;
9076;SDS011;4574;51.072;17.174;2022-12-15T03:27:01;70.70;;;33.73;;
9076;SDS011;4574;51.072;17.174;2022-12-15T03:29:30;64.50;;;33.17;;
9076;SDS011;4574;51.072;17.174;2022-12-15T03:31:58;70.57;;;35.43;;
9076;SDS011;4574;51.072;17.174;2022-12-15T03:34:27;70.97;;;33.17;;
9076;SDS011;4574;51.072;17.174;2022-12-15T03:36:57;69.20;;;33.27;;
9076;SDS011;4574;51.072;17.174;2022-12-15T03:39:26;73.27;;;34.90;;
9076;SDS011;4574;51.072;17.174;2022-12-15T03:41:54;64.67;;;33.63;;
9076;SDS011;4574;51.072;17.174;2022-12-15T03:44:23;65.40;;;32.87;;
9076;SDS011;4574;51.072;17.174;2022-12-15T03:46:51;63.63;;;33.20;;
9076;SDS011;4574;51.072;17.174;2022-12-15T03:49:28;68.43;;;34.77;;
9076;SDS011;4574;51.072;17.174;2022-12-15T03:51:58;68.23;;;34.60;;
9076;SDS011;4574;51.072;17.174;2022-12-15T03:54:26;67.27;;;35.03;;
9076;SDS011;4574;51.072;17.174;2022-12-15T03:56:55;73.20;;;34.57;;
9076;SDS011;4574;51.072;17.174;2022-12-15T03:59:23;66.57;;;32.43;;
9076;SDS011;4574;51.072;17.174;2022-12-15T04:01:52;63.73;;;31.40;;
9076;SDS011;4574;51.072;17.174;2022-12-15T04:04:21;59.13;;;30.67;;
9076;SDS011;4574;51.072;17.174;2022-12-15T04:06:49;61.53;;;31.60;;
9076;SDS011;4574;51.072;17.174;2022-12-15T04:09:19;68.37;;;32.30;;
9076;SDS011;4574;51.072;17.174;2022-12-15T04:11:48;67.27;;;34.10;;
9076;SDS011;4574;51.072;17.174;2022-12-15T04:14:16;71.23;;;35.60;;
9076;SDS011;4574;51.072;17.174;2022-12-15T04:16:44;72.73;;;35.23;;
9076;SDS011;4574;51.072;17.174;2022-12-15T04:19:13;66.57;;;34.47;;
9076;SDS011;4574;51.072;17.174;2022-12-15T04:21:58;70.00;;;33.70;;
9076;SDS011;4574;51.072;17.174;2022-12-15T04:24:31;63.63;;;32.70;;
9076;SDS011;4574;51.072;17.174;2022-12-15T04:27:17;62.00;;;31.37;;
9076;SDS011;4574;51.072;17.174;2022-12-15T04:30:03;61.40;;;32.63;;
9076;SDS011;4574;51.072;17.174;2022-12-15T04:32:49;65.07;;;33.40;;
9076;SDS011;4574;51.072;17.174;2022-12-15T04:35:35;63.10;;;32.47;;
9076;SDS011;4574;51.072;17.174;2022-12-15T04:38:21;57.30;;;30.07;;
9076;SDS011;4574;51.072;17.174;2022-12-15T04:41:17;62.30;;;30.93;;
9076;SDS011;4574;51.072;17.174;2022-12-15T04:44:05;61.90;;;30.17;;
9076;SDS011;4574;51.072;17.174;2022-12-15T04:46:51;59.10;;;31.53;;
9076;SDS011;4574;51.072;17.174;2022-12-15T04:49:37;64.80;;;31.73;;
9076;SDS011;4574;51.072;17.174;2022-12-15T04:52:23;53.17;;;29.43;;
9076;SDS011;4574;51.072;17.174;2022-12-15T04:55:09;55.77;;;27.47;;
9076;SDS011;4574;51.072;17.174;2022-12-15T04:57:56;53.40;;;27.43;;
9076;SDS011;4574;51.072;17.174;2022-12-15T05:00:41;58.80;;;29.70;;
9076;SDS011;4574;51.072;17.174;2022-12-15T05:03:27;52.17;;;26.50;;
9076;SDS011;4574;51.072;17.174;2022-12-15T05:06:13;47.60;;;25.00;;
9076;SDS011;4574;51.072;17.174;2022-12-15T05:08:59;45.67;;;23.53;;
9076;SDS011;4574;51.072;17.174;2022-12-15T05:11:44;48.27;;;22.00;;
9076;SDS011;4574;51.072;17.174;2022-12-15T05:14:31;38.23;;;21.20;;
9076;SDS011;4574;51.072;17.174;2022-12-15T05:17:17;39.27;;;20.33;;
9076;SDS011;4574;51.072;17.174;2022-12-15T05:20:07;39.53;;;20.77;;
9076;SDS011;4574;51.072;17.174;2022-12-15T05:22:54;31.17;;;18.17;;
9076;SDS011;4574;51.072;17.174;2022-12-15T05:25:40;31.27;;;17.53;;
9076;SDS011;4574;51.072;17.174;2022-12-15T05:28:25;37.20;;;18.33;;
9076;SDS011;4574;51.072;17.174;2022-12-15T05:31:13;37.37;;;20.13;;
9076;SDS011;4574;51.072;17.174;2022-12-15T05:33:59;34.57;;;19.43;;
9076;SDS011;4574;51.072;17.174;2022-12-15T05:36:31;37.00;;;20.20;;
9076;SDS011;4574;51.072;17.174;2022-12-15T05:39:00;40.93;;;18.97;;
9076;SDS011;4574;51.072;17.174;2022-12-15T05:41:28;37.60;;;19.80;;
9076;SDS011;4574;51.072;17.174;2022-12-15T05:43:57;37.03;;;19.63;;
9076;SDS011;4574;51.072;17.174;2022-12-15T05:46:27;33.87;;;20.00;;
9076;SDS011;4574;51.072;17.174;2022-12-15T05:48:55;39.63;;;20.20;;
9076;SDS011;4574;51.072;17.174;2022-12-15T05:51:23;42.40;;;21.30;;
9076;SDS011;4574;51.072;17.174;2022-12-15T05:53:52;36.10;;;20.20;;
9076;SDS011;4574;51.072;17.174;2022-12-15T05:56:21;38.17;;;20.13;;
9076;SDS011;4574;51.072;17.174;2022-12-15T05:58:49;38.23;;;21.50;;
9076;SDS011;4574;51.072;17.174;2022-12-15T06:01:18;37.47;;;21.80;;
9076;SDS011;4574;51.072;17.174;2022-12-15T06:03:48;35.90;;;19.40;;
9076;SDS011;4574;51.072;17.174;2022-12-15T06:06:17;38.60;;;21.73;;
9076;SDS011;4574;51.072;17.174;2022-12-15T06:08:46;43.40;;;20.67;;
9076;SDS011;4574;51.072;17.174;2022-12-15T06:11:15;41.73;;;20.90;;
9076;SDS011;4574;51.072;17.174;2022-12-15T06:13:45;35.03;;;19.97;;
9076;SDS011;4574;51.072;17.174;2022-12-15T06:16:14;33.37;;;19.57;;
9076;SDS011;4574;51.072;17.174;2022-12-15T06:18:45;37.03;;;20.03;;
9076;SDS011;4574;51.072;17.174;2022-12-15T06:21:18;36.50;;;20.30;;
9076;SDS011;4574;51.072;17.174;2022-12-15T06:23:49;33.63;;;18.83;;
9076;SDS011;4574;51.072;17.174;2022-12-15T06:26:18;35.80;;;19.50;;
9076;SDS011;4574;51.072;17.174;2022-12-15T06:28:48;33.33;;;17.93;;
9076;SDS011;4574;51.072;17.174;2022-12-15T06:31:18;32.33;;;17.87;;
9076;SDS011;4574;51.072;17.174;2022-12-15T06:33:49;31.30;;;17.60;;
9076;SDS011;4574;51.072;17.174;2022-12-15T06:36:26;31.33;;;18.17;;
9076;SDS011;4574;51.072;17.174;2022-12-15T06:38:57;32.57;;;18.87;;
9076;SDS011;4574;51.072;17.174;2022-12-15T06:41:26;32.20;;;18.53;;
9076;SDS011;4574;51.072;17.174;2022-12-15T06:43:56;32.53;;;18.17;;
9076;SDS011;4574;51.072;17.174;2022-12-15T06:46:27;37.00;;;17.67;;
9076;SDS011;4574;51.072;17.174;2022-12-15T06:48:58;29.20;;;17.17;;
9076;SDS011;4574;51.072;17.174;2022-12-15T06:51:27;30.60;;;17.33;;
9076;SDS011;4574;51.072;17.174;2022-12-15T06:53:55;26.83;;;16.40;;
9076;SDS011;4574;51.072;17.174;2022-12-15T06:56:24;27.03;;;16.20;;
9076;SDS011;4574;51.072;17.174;2022-12-15T06:58:59;24.27;;;13.87;;
9076;SDS011;4574;51.072;17.174;2022-12-15T07:01:29;23.50;;;14.63;;
9076;SDS011;4574;51.072;17.174;2022-12-15T07:03:59;22.83;;;13.40;;
9076;SDS011;4574;51.072;17.174;2022-12-15T07:06:31;20.20;;;12.50;;
9076;SDS011;4574;51.072;17.174;2022-12-15T07:09:02;23.90;;;13.13;;
9076;SDS011;4574;51.072;17.174;2022-12-15T07:11:33;19.47;;;12.20;;
9076;SDS011;4574;51.072;17.174;2022-12-15T07:14:01;25.73;;;13.20;;
9076;SDS011;4574;51.072;17.174;2022-12-15T07:16:30;20.57;;;12.27;;
9076;SDS011;4574;51.072;17.174;2022-12-15T07:19:00;23.43;;;13.40;;
9076;SDS011;4574;51.072;17.174;2022-12-15T07:21:29;22.60;;;12.83;;
9076;SDS011;4574;51.072;17.174;2022-12-15T07:23:57;26.23;;;13.93;;
9076;SDS011;4574;51.072;17.174;2022-12-15T07:26:27;22.47;;;13.63;;
9076;SDS011;4574;51.072;17.174;2022-12-15T07:28:56;24.07;;;14.30;;
9076;SDS011;4574;51.072;17.174;2022-12-15T07:31:24;21.73;;;13.50;;
9076;SDS011;4574;51.072;17.174;2022-12-15T07:33:53;23.53;;;13.83;;
9076;SDS011;4574;51.072;17.174;2022-12-15T07:36:25;22.30;;;13.53;;
9076;SDS011;4574;51.072;17.174;2022-12-15T07:38:58;24.10;;;14.37;;
9076;SDS011;4574;51.072;17.174;2022-12-15T07:41:28;25.47;;;15.13;;
9076;SDS011;4574;51.072;17.174;2022-12-15T07:43:56;25.30;;;14.70;;
9076;SDS011;4574;51.072;17.174;2022-12-15T07:46:25;27.73;;;15.47;;
9076;SDS011;4574;51.072;17.174;2022-12-15T07:48:54;24.53;;;15.40;;
9076;SDS011;4574;51.072;17.174;2022-12-15T07:51:24;24.93;;;15.07;;
9076;SDS011;4574;51.072;17.174;2022-12-15T07:53:53;23.17;;;13.90;;
9076;SDS011;4574;51.072;17.174;2022-12-15T07:56:21;26.27;;;13.83;;
9076;SDS011;4574;51.072;17.174;2022-12-15T07:58:50;24.20;;;14.23;;
9076;SDS011;4574;51.072;17.174;2022-12-15T08:01:18;23.03;;;14.33;;
9076;SDS011;4574;51.072;17.174;2022-12-15T08:03:47;23.03;;;12.87;;
9076;SDS011;4574;51.072;17.174;2022-12-15T08:06:16;23.47;;;13.20;;
9076;SDS011;4574;51.072;17.174;2022-12-15T08:08:46;23.10;;;14.17;;
9076;SDS011;4574;51.072;17.174;2022-12-15T08:11:17;22.77;;;14.00;;
9076;SDS011;4574;51.072;17.174;2022-12-15T08:13:47;26.27;;;13.67;;
9076;SDS011;4574;51.072;17.174;2022-12-15T08:16:36;30.37;;;15.20;;
9076;SDS011;4574;51.072;17.174;2022-12-15T08:19:06;24.33;;;14.57;;
9076;SDS011;4574;51.072;17.174;2022-12-15T08:21:38;25.83;;;14.07;;
9076;SDS011;4574;51.072;17.174;2022-12-15T08:24:08;24.27;;;14.13;;
9076;SDS011;4574;51.072;17.174;2022-12-15T08:26:37;25.50;;;14.00;;
9076;SDS011;4574;51.072;17.174;2022-12-15T08:29:07;24.40;;;13.67;;
9076;SDS011;4574;51.072;17.174;2022-12-15T08:31:58;25.73;;;14.10;;
9076;SDS011;4574;51.072;17.174;2022-12-15T08:34:27;23.83;;;13.87;;
9076;SDS011;4574;51.072;17.174;2022-12-15T08:36:55;25.77;;;13.97;;
9076;SDS011;4574;51.072;17.174;2022-12-15T08:39:25;25.07;;;14.50;;
9076;SDS011;4574;51.072;17.174;2022-12-15T08:41:54;23.77;;;14.17;;
9076;SDS011;4574;51.072;17.174;2022-12-15T08:44:23;26.30;;;14.67;;
9076;SDS011;4574;51.072;17.174;2022-12-15T08:46:51;26.67;;;14.83;;
9076;SDS011;4574;51.072;17.174;2022-12-15T08:49:19;29.73;;;14.73;;
9076;SDS011;4574;51.072;17.174;2022-12-15T08:51:48;23.70;;;14.10;;
9076;SDS011;4574;51.072;17.174;2022-12-15T08:54:18;25.97;;;14.20;;
9076;SDS011;4574;51.072;17.174;2022-12-15T08:56:48;24.37;;;15.43;;
9076;SDS011;4574;51.072;17.174;2022-12-15T08:59:17;24.40;;;13.53;;
9076;SDS011;4574;51.072;17.174;2022-12-15T09:01:45;23.50;;;14.00;;
9076;SDS011;4574;51.072;17.174;2022-12-15T09:04:14;27.10;;;14.57;;
9076;SDS011;4574;51.072;17.174;2022-12-15T09:06:43;25.37;;;13.13;;
9076;SDS011;4574;51.072;17.174;2022-12-15T09:09:16;22.60;;;13.20;;
9076;SDS011;4574;51.072;17.174;2022-12-15T09:11:44;24.67;;;13.80;;
9076;SDS011;4574;51.072;17.174;2022-12-15T09:14:14;25.83;;;13.80;;
9076;SDS011;4574;51.072;17.174;2022-12-15T09:16:45;28.57;;;13.37;;
9076;SDS011;4574;51.072;17.174;2022-12-15T09:19:16;22.60;;;13.90;;
9076;SDS011;4574;51.072;17.174;2022-12-15T09:21:44;23.97;;;14.30;;
9076;SDS011;4574;51.072;17.174;2022-12-15T09:24:15;22.47;;;13.40;;
9076;SDS011;4574;51.072;17.174;2022-12-15T09:27:00;21.63;;;13.93;;
9076;SDS011;4574;51.072;17.174;2022-12-15T09:29:33;27.20;;;14.83;;
9076;SDS011;4574;51.072;17.174;2022-12-15T09:32:01;25.20;;;14.33;;
9076;SDS011;4574;51.072;17.174;2022-12-15T09:34:39;26.13;;;13.70;;
9076;SDS011;4574;51.072;17.174;2022-12-15T09:37:07;20.17;;;13.30;;
9076;SDS011;4574;51.072;17.174;2022-12-15T09:39:36;21.90;;;13.10;;
9076;SDS011;4574;51.072;17.174;2022-12-15T09:42:05;22.57;;;12.80;;
9076;SDS011;4574;51.072;17.174;2022-12-15T09:44:49;21.43;;;12.57;;
9076;SDS011;4574;51.072;17.174;2022-12-15T09:47:26;22.40;;;12.67;;
9076;SDS011;4574;51.072;17.174;2022-12-15T09:49:59;21.60;;;12.27;;
9076;SDS011;4574;51.072;17.174;2022-12-15T09:52:31;26.70;;;12.60;;
9076;SDS011;4574;51.072;17.174;2022-12-15T09:55:04;22.57;;;13.17;;
9076;SDS011;4574;51.072;17.174;2022-12-15T09:57:47;22.30;;;12.43;;
9076;SDS011;4574;51.072;17.174;2022-12-15T10:00:22;19.00;;;11.50;;
9076;SDS011;4574;51.072;17.174;2022-12-15T10:06:03;20.63;;;12.73;;
9076;SDS011;4574;51.072;17.174;2022-12-15T10:08:47;21.20;;;11.70;;
9076;SDS011;4574;51.072;17.174;2022-12-15T10:11:23;21.83;;;12.77;;
9076;SDS011;4574;51.072;17.174;2022-12-15T10:14:03;20.63;;;12.23;;
9076;SDS011;4574;51.072;17.174;2022-12-15T10:16:46;19.93;;;13.47;;
9076;SDS011;4574;51.072;17.174;2022-12-15T10:19:21;19.63;;;12.53;;
9076;SDS011;4574;51.072;17.174;2022-12-15T10:21:55;22.63;;;13.50;;
9076;SDS011;4574;51.072;17.174;2022-12-15T10:24:24;25.90;;;14.40;;
9076;SDS011;4574;51.072;17.174;2022-12-15T10:27:23;23.07;;;12.90;;
9076;SDS011;4574;51.072;17.174;2022-12-15T10:30:02;21.80;;;13.20;;
9076;SDS011;4574;51.072;17.174;2022-12-15T10:32:39;20.60;;;13.47;;
9076;SDS011;4574;51.072;17.174;2022-12-15T10:35:18;23.13;;;12.37;;
9076;SDS011;4574;51.072;17.174;2022-12-15T10:37:50;21.47;;;13.13;;
9076;SDS011;4574;51.072;17.174;2022-12-15T10:40:21;21.90;;;11.40;;
9076;SDS011;4574;51.072;17.174;2022-12-15T10:43:33;20.27;;;12.33;;
9076;SDS011;4574;51.072;17.174;2022-12-15T10:46:05;20.67;;;12.93;;
9076;SDS011;4574;51.072;17.174;2022-12-15T10:48:41;20.27;;;12.27;;
9076;SDS011;4574;51.072;17.174;2022-12-15T10:51:18;21.50;;;12.77;;
9076;SDS011;4574;51.072;17.174;2022-12-15T10:53:49;24.97;;;13.77;;
9076;SDS011;4574;51.072;17.174;2022-12-15T10:56:21;22.40;;;13.37;;
9076;SDS011;4574;51.072;17.174;2022-12-15T10:58:58;22.40;;;12.43;;
9076;SDS011;4574;51.072;17.174;2022-12-15T11:01:29;22.27;;;13.23;;
9076;SDS011;4574;51.072;17.174;2022-12-15T11:04:01;24.50;;;13.63;;
9076;SDS011;4574;51.072;17.174;2022-12-15T11:06:31;21.40;;;12.60;;
9076;SDS011;4574;51.072;17.174;2022-12-15T11:09:09;20.00;;;12.13;;
9076;SDS011;4574;51.072;17.174;2022-12-15T11:11:53;21.23;;;12.80;;
9076;SDS011;4574;51.072;17.174;2022-12-15T11:14:43;19.90;;;12.60;;
9076;SDS011;4574;51.072;17.174;2022-12-15T11:17:14;30.07;;;17.10;;
9076;SDS011;4574;51.072;17.174;2022-12-15T11:19:48;29.17;;;19.50;;
9076;SDS011;4574;51.072;17.174;2022-12-15T11:22:30;23.80;;;15.27;;
9076;SDS011;4574;51.072;17.174;2022-12-15T11:25:11;21.67;;;13.57;;
9076;SDS011;4574;51.072;17.174;2022-12-15T11:27:49;22.00;;;13.73;;
9076;SDS011;4574;51.072;17.174;2022-12-15T11:30:23;25.40;;;14.83;;
9076;SDS011;4574;51.072;17.174;2022-12-15T11:32:54;20.83;;;13.40;;
9076;SDS011;4574;51.072;17.174;2022-12-15T11:35:28;27.33;;;15.00;;
9076;SDS011;4574;51.072;17.174;2022-12-15T11:38:07;33.07;;;18.60;;
9076;SDS011;4574;51.072;17.174;2022-12-15T11:40:45;23.73;;;15.00;;
9076;SDS011;4574;51.072;17.174;2022-12-15T11:43:26;25.30;;;15.53;;
9076;SDS011;4574;51.072;17.174;2022-12-15T11:46:16;24.93;;;14.07;;
9076;SDS011;4574;51.072;17.174;2022-12-15T11:48:53;38.93;;;22.83;;
9076;SDS011;4574;51.072;17.174;2022-12-15T11:51:38;37.83;;;22.30;;
9076;SDS011;4574;51.072;17.174;2022-12-15T11:54:14;32.27;;;18.50;;
9076;SDS011;4574;51.072;17.174;2022-12-15T11:56:51;23.10;;;14.80;;
9076;SDS011;4574;51.072;17.174;2022-12-15T11:59:32;30.27;;;16.83;;
9076;SDS011;4574;51.072;17.174;2022-12-15T12:05:27;19.47;;;12.70;;
9076;SDS011;4574;51.072;17.174;2022-12-15T12:08:08;21.57;;;12.37;;
9076;SDS011;4574;51.072;17.174;2022-12-15T12:10:46;19.67;;;11.87;;
9076;SDS011;4574;51.072;17.174;2022-12-15T12:13:25;21.27;;;12.77;;
9076;SDS011;4574;51.072;17.174;2022-12-15T12:16:00;22.80;;;12.80;;
9076;SDS011;4574;51.072;17.174;2022-12-15T12:18:38;22.10;;;12.97;;
9076;SDS011;4574;51.072;17.174;2022-12-15T12:21:17;20.80;;;12.70;;
9076;SDS011;4574;51.072;17.174;2022-12-15T12:23:52;23.27;;;12.83;;
9076;SDS011;4574;51.072;17.174;2022-12-15T12:26:28;22.13;;;12.87;;
9076;SDS011;4574;51.072;17.174;2022-12-15T12:29:03;21.23;;;12.57;;
9076;SDS011;4574;51.072;17.174;2022-12-15T12:31:41;22.30;;;13.27;;
9076;SDS011;4574;51.072;17.174;2022-12-15T12:34:18;24.23;;;14.23;;
9076;SDS011;4574;51.072;17.174;2022-12-15T12:36:53;22.27;;;13.37;;
9076;SDS011;4574;51.072;17.174;2022-12-15T12:39:29;25.90;;;13.83;;
9076;SDS011;4574;51.072;17.174;2022-12-15T12:41:59;23.97;;;14.53;;
9076;SDS011;4574;51.072;17.174;2022-12-15T12:44:35;22.40;;;13.50;;
9076;SDS011;4574;51.072;17.174;2022-12-15T12:47:06;21.77;;;13.23;;
9076;SDS011;4574;51.072;17.174;2022-12-15T12:49:40;23.00;;;13.60;;
9076;SDS011;4574;51.072;17.174;2022-12-15T12:52:19;22.90;;;13.57;;
9076;SDS011;4574;51.072;17.174;2022-12-15T12:54:56;25.83;;;14.07;;
9076;SDS011;4574;51.072;17.174;2022-12-15T12:57:33;21.87;;;13.30;;
9076;SDS011;4574;51.072;17.174;2022-12-15T13:00:12;21.53;;;13.93;;
9076;SDS011;4574;51.072;17.174;2022-12-15T13:05:49;25.13;;;14.37;;
9076;SDS011;4574;51.072;17.174;2022-12-15T13:08:27;22.30;;;13.70;;
9076;SDS011;4574;51.072;17.174;2022-12-15T13:14:30;24.10;;;14.07;;
9076;SDS011;4574;51.072;17.174;2022-12-15T13:17:20;21.67;;;13.67;;
9076;SDS011;4574;51.072;17.174;2022-12-15T13:26:10;23.53;;;14.73;;
9076;SDS011;4574;51.072;17.174;2022-12-15T13:28:44;25.93;;;14.97;;
9076;SDS011;4574;51.072;17.174;2022-12-15T13:31:25;21.67;;;13.80;;
9076;SDS011;4574;51.072;17.174;2022-12-15T13:34:15;21.90;;;13.90;;
9076;SDS011;4574;51.072;17.174;2022-12-15T13:36:52;22.97;;;13.63;;
9076;SDS011;4574;51.072;17.174;2022-12-15T13:39:31;25.40;;;13.83;;
9076;SDS011;4574;51.072;17.174;2022-12-15T13:45:09;22.80;;;13.77;;
9076;SDS011;4574;51.072;17.174;2022-12-15T13:47:53;23.17;;;14.50;;
9076;SDS011;4574;51.072;17.174;2022-12-15T13:50:32;21.97;;;13.50;;
9076;SDS011;4574;51.072;17.174;2022-12-15T13:53:06;22.90;;;13.50;;
9076;SDS011;4574;51.072;17.174;2022-12-15T13:56:00;21.57;;;14.07;;
9076;SDS011;4574;51.072;17.174;2022-12-15T13:58:37;24.53;;;14.50;;
9076;SDS011;4574;51.072;17.174;2022-12-15T14:01:18;28.03;;;16.63;;
9076;SDS011;4574;51.072;17.174;2022-12-15T14:04:02;27.77;;;16.33;;
9076;SDS011;4574;51.072;17.174;2022-12-15T14:06:36;39.37;;;25.03;;
9076;SDS011;4574;51.072;17.174;2022-12-15T14:09:18;47.07;;;29.33;;
9076;SDS011;4574;51.072;17.174;2022-12-15T14:11:48;26.30;;;15.70;;
9076;SDS011;4574;51.072;17.174;2022-12-15T14:14:21;26.37;;;14.87;;
9076;SDS011;4574;51.072;17.174;2022-12-15T14:16:55;28.57;;;16.03;;
9076;SDS011;4574;51.072;17.174;2022-12-15T14:19:27;25.50;;;16.07;;
9076;SDS011;4574;51.072;17.174;2022-12-15T14:22:15;25.63;;;15.27;;
9076;SDS011;4574;51.072;17.174;2022-12-15T14:25:11;26.20;;;15.30;;
9076;SDS011;4574;51.072;17.174;2022-12-15T14:27:43;25.27;;;15.30;;
9076;SDS011;4574;51.072;17.174;2022-12-15T14:30:20;23.70;;;15.27;;
9076;SDS011;4574;51.072;17.174;2022-12-15T14:32:51;24.33;;;15.07;;
9076;SDS011;4574;51.072;17.174;2022-12-15T14:35:29;28.33;;;15.80;;
9076;SDS011;4574;51.072;17.174;2022-12-15T14:38:00;25.40;;;15.53;;
9076;SDS011;4574;51.072;17.174;2022-12-15T14:40:32;25.70;;;15.37;;
9076;SDS011;4574;51.072;17.174;2022-12-15T14:43:02;27.83;;;15.97;;
9076;SDS011;4574;51.072;17.174;2022-12-15T14:45:32;25.83;;;15.47;;
9076;SDS011;4574;51.072;17.174;2022-12-15T14:48:02;26.30;;;15.80;;
9076;SDS011;4574;51.072;17.174;2022-12-15T14:50:58;29.83;;;17.70;;
9076;SDS011;4574;51.072;17.174;2022-12-15T14:53:29;26.33;;;16.47;;
9076;SDS011;4574;51.072;17.174;2022-12-15T14:56:19;27.63;;;16.47;;
9076;SDS011;4574;51.072;17.174;2022-12-15T14:58:57;23.57;;;14.23;;
9076;SDS011;4574;51.072;17.174;2022-12-15T15:01:32;24.00;;;15.87;;
9076;SDS011;4574;51.072;17.174;2022-12-15T15:04:03;26.43;;;16.40;;
9076;SDS011;4574;51.072;17.174;2022-12-15T15:06:35;26.20;;;15.83;;
9076;SDS011;4574;51.072;17.174;2022-12-15T15:09:15;29.83;;;16.60;;
9076;SDS011;4574;51.072;17.174;2022-12-15T15:11:50;24.20;;;14.97;;
9076;SDS011;4574;51.072;17.174;2022-12-15T15:14:22;27.10;;;17.03;;
9076;SDS011;4574;51.072;17.174;2022-12-15T15:17:00;25.87;;;15.60;;
9076;SDS011;4574;51.072;17.174;2022-12-15T15:19:32;28.00;;;16.57;;
9076;SDS011;4574;51.072;17.174;2022-12-15T15:22:09;27.90;;;16.17;;
9076;SDS011;4574;51.072;17.174;2022-12-15T15:24:49;29.20;;;17.00;;
9076;SDS011;4574;51.072;17.174;2022-12-15T15:27:23;31.13;;;18.53;;
9076;SDS011;4574;51.072;17.174;2022-12-15T15:30:05;26.27;;;16.33;;
9076;SDS011;4574;51.072;17.174;2022-12-15T15:32:50;28.43;;;16.77;;
9076;SDS011;4574;51.072;17.174;2022-12-15T15:35:20;30.47;;;16.20;;
9076;SDS011;4574;51.072;17.174;2022-12-15T15:37:51;28.20;;;17.43;;
9076;SDS011;4574;51.072;17.174;2022-12-15T15:40:22;35.73;;;18.97;;
9076;SDS011;4574;51.072;17.174;2022-12-15T15:42:50;43.13;;;22.83;;
9076;SDS011;4574;51.072;17.174;2022-12-15T15:45:19;79.70;;;37.30;;
9076;SDS011;4574;51.072;17.174;2022-12-15T15:47:48;81.53;;;39.30;;
9076;SDS011;4574;51.072;17.174;2022-12-15T15:50:24;78.07;;;37.00;;